sensor_id;sensor_type;location;lat;lon;timestamp;P1;durP1;ratioP1;P2;durP2;ratioP2
22995;SDS011;11664;49.774;8.650;2023-03-23T00:01:52;3.92;;;3.63;;
22995;SDS011;11664;49.774;8.650;2023-03-23T00:04:18;3.20;;;3.00;;
22995;SDS011;11664;49.774;8.650;2023-03-23T00:06:50;3.35;;;3.15;;
22995;SDS011;11664;49.774;8.650;2023-03-23T00:09:22;3.10;;;2.90;;
22995;SDS011;11664;49.774;8.650;2023-03-23T00:11:48;3.00;;;2.90;;
22995;SDS011;11664;49.774;8.650;2023-03-23T00:14:15;3.22;;;3.03;;
22995;SDS011;11664;49.774;8.650;2023-03-23T00:16:41;3.10;;;2.90;;
22995;SDS011;11664;49.774;8.650;2023-03-23T00:19:08;4.88;;;3.30;;
22995;SDS011;11664;49.774;8.650;2023-03-23T00:21:53;7.20;;;3.10;;
22995;SDS011;11664;49.774;8.650;2023-03-23T00:24:24;3.13;;;2.92;;
22995;SDS011;11664;49.774;8.650;2023-03-23T00:26:53;3.00;;;2.80;;
22995;SDS011;11664;49.774;8.650;2023-03-23T00:29:20;3.88;;;3.38;;
22995;SDS011;11664;49.774;8.650;2023-03-23T00:31:49;3.22;;;3.03;;
22995;SDS011;11664;49.774;8.650;2023-03-23T00:34:16;3.10;;;2.90;;
22995;SDS011;11664;49.774;8.650;2023-03-23T00:36:48;3.80;;;3.50;;
22995;SDS011;11664;49.774;8.650;2023-03-23T00:39:18;3.22;;;3.10;;
22995;SDS011;11664;49.774;8.650;2023-03-23T00:41:50;3.75;;;3.45;;
22995;SDS011;11664;49.774;8.650;2023-03-23T00:44:16;3.10;;;3.00;;
22995;SDS011;11664;49.774;8.650;2023-03-23T00:46:45;3.10;;;3.00;;
22995;SDS011;11664;49.774;8.650;2023-03-23T00:49:14;3.30;;;3.10;;
22995;SDS011;11664;49.774;8.650;2023-03-23T00:51:44;3.40;;;3.20;;
22995;SDS011;11664;49.774;8.650;2023-03-23T00:54:11;4.00;;;3.80;;
22995;SDS011;11664;49.774;8.650;2023-03-23T00:56:40;4.05;;;3.75;;
22995;SDS011;11664;49.774;8.650;2023-03-23T00:59:11;4.53;;;4.20;;
22995;SDS011;11664;49.774;8.650;2023-03-23T01:01:40;4.80;;;4.50;;
22995;SDS011;11664;49.774;8.650;2023-03-23T01:04:09;4.45;;;4.25;;
22995;SDS011;11664;49.774;8.650;2023-03-23T01:06:37;5.45;;;5.05;;
22995;SDS011;11664;49.774;8.650;2023-03-23T01:09:12;4.13;;;3.92;;
22995;SDS011;11664;49.774;8.650;2023-03-23T01:11:42;4.18;;;3.97;;
22995;SDS011;11664;49.774;8.650;2023-03-23T01:14:08;4.13;;;3.83;;
22995;SDS011;11664;49.774;8.650;2023-03-23T01:16:41;3.92;;;3.72;;
22995;SDS011;11664;49.774;8.650;2023-03-23T01:19:06;3.88;;;3.67;;
22995;SDS011;11664;49.774;8.650;2023-03-23T01:21:32;3.92;;;3.72;;
22995;SDS011;11664;49.774;8.650;2023-03-23T01:24:01;3.60;;;3.40;;
22995;SDS011;11664;49.774;8.650;2023-03-23T01:26:48;4.28;;;4.07;;
22995;SDS011;11664;49.774;8.650;2023-03-23T01:29:29;3.90;;;3.70;;
22995;SDS011;11664;49.774;8.650;2023-03-23T01:31:57;3.95;;;3.75;;
22995;SDS011;11664;49.774;8.650;2023-03-23T01:34:26;4.97;;;4.45;;
22995;SDS011;11664;49.774;8.650;2023-03-23T01:36:52;4.22;;;3.90;;
22995;SDS011;11664;49.774;8.650;2023-03-23T01:39:33;4.22;;;3.95;;
22995;SDS011;11664;49.774;8.650;2023-03-23T01:42:01;3.80;;;3.60;;
22995;SDS011;11664;49.774;8.650;2023-03-23T01:47:04;3.88;;;3.58;;
22995;SDS011;11664;49.774;8.650;2023-03-23T01:49:41;3.83;;;3.55;;
22995;SDS011;11664;49.774;8.650;2023-03-23T01:52:18;3.83;;;3.63;;
22995;SDS011;11664;49.774;8.650;2023-03-23T01:54:48;3.70;;;3.50;;
22995;SDS011;11664;49.774;8.650;2023-03-23T01:57:16;4.18;;;3.90;;
22995;SDS011;11664;49.774;8.650;2023-03-23T01:59:44;4.22;;;3.92;;
22995;SDS011;11664;49.774;8.650;2023-03-23T02:02:12;4.43;;;4.13;;
22995;SDS011;11664;49.774;8.650;2023-03-23T02:04:40;4.13;;;3.92;;
22995;SDS011;11664;49.774;8.650;2023-03-23T02:07:09;4.40;;;4.10;;
22995;SDS011;11664;49.774;8.650;2023-03-23T02:09:37;4.22;;;4.03;;
22995;SDS011;11664;49.774;8.650;2023-03-23T02:12:09;4.28;;;4.07;;
22995;SDS011;11664;49.774;8.650;2023-03-23T02:14:34;4.47;;;4.28;;
22995;SDS011;11664;49.774;8.650;2023-03-23T02:34:42;4.10;;;3.30;;
22995;SDS011;11664;49.774;8.650;2023-03-23T02:37:20;4.10;;;3.85;;
22995;SDS011;11664;49.774;8.650;2023-03-23T02:39:56;3.63;;;3.42;;
22995;SDS011;11664;49.774;8.650;2023-03-23T02:42:36;3.75;;;3.55;;
22995;SDS011;11664;49.774;8.650;2023-03-23T02:45:05;3.55;;;3.35;;
22995;SDS011;11664;49.774;8.650;2023-03-23T02:47:42;3.70;;;3.50;;
22995;SDS011;11664;49.774;8.650;2023-03-23T02:50:11;6.32;;;4.32;;
22995;SDS011;11664;49.774;8.650;2023-03-23T02:52:46;3.75;;;3.53;;
22995;SDS011;11664;49.774;8.650;2023-03-23T02:55:21;3.45;;;3.25;;
22995;SDS011;11664;49.774;8.650;2023-03-23T02:58:01;3.70;;;3.40;;
22995;SDS011;11664;49.774;8.650;2023-03-23T03:03:12;4.63;;;4.18;;
22995;SDS011;11664;49.774;8.650;2023-03-23T03:08:31;3.40;;;3.20;;
22995;SDS011;11664;49.774;8.650;2023-03-23T03:11:14;3.45;;;3.25;;
22995;SDS011;11664;49.774;8.650;2023-03-23T03:16:56;4.00;;;3.80;;
22995;SDS011;11664;49.774;8.650;2023-03-23T03:19:48;7.53;;;7.03;;
22995;SDS011;11664;49.774;8.650;2023-03-23T03:22:25;6.93;;;6.53;;
22995;SDS011;11664;49.774;8.650;2023-03-23T03:24:53;7.95;;;7.55;;
22995;SDS011;11664;49.774;8.650;2023-03-23T03:27:22;10.20;;;9.60;;
22995;SDS011;11664;49.774;8.650;2023-03-23T03:29:51;8.98;;;8.52;;
22995;SDS011;11664;49.774;8.650;2023-03-23T03:35:02;6.93;;;6.55;;
22995;SDS011;11664;49.774;8.650;2023-03-23T03:37:35;7.45;;;6.85;;
22995;SDS011;11664;49.774;8.650;2023-03-23T03:40:20;9.50;;;8.90;;
22995;SDS011;11664;49.774;8.650;2023-03-23T03:42:49;9.23;;;8.73;;
22995;SDS011;11664;49.774;8.650;2023-03-23T03:45:19;10.02;;;9.38;;
22995;SDS011;11664;49.774;8.650;2023-03-23T03:47:51;4.82;;;4.50;;
22995;SDS011;11664;49.774;8.650;2023-03-23T03:50:20;3.63;;;3.40;;
22995;SDS011;11664;49.774;8.650;2023-03-23T03:52:51;3.30;;;3.10;;
22995;SDS011;11664;49.774;8.650;2023-03-23T03:55:26;4.32;;;3.00;;
22995;SDS011;11664;49.774;8.650;2023-03-23T03:57:56;3.08;;;2.88;;
22995;SDS011;11664;49.774;8.650;2023-03-23T04:00:25;4.28;;;3.97;;
22995;SDS011;11664;49.774;8.650;2023-03-23T04:02:54;3.95;;;3.75;;
22995;SDS011;11664;49.774;8.650;2023-03-23T04:05:22;4.35;;;3.95;;
22995;SDS011;11664;49.774;8.650;2023-03-23T04:11:12;6.05;;;5.65;;
22995;SDS011;11664;49.774;8.650;2023-03-23T04:13:38;3.90;;;3.70;;
22995;SDS011;11664;49.774;8.650;2023-03-23T04:16:07;3.30;;;3.08;;
22995;SDS011;11664;49.774;8.650;2023-03-23T04:18:46;4.07;;;3.88;;
22995;SDS011;11664;49.774;8.650;2023-03-23T04:21:12;4.75;;;4.40;;
22995;SDS011;11664;49.774;8.650;2023-03-23T04:23:39;4.00;;;3.80;;
22995;SDS011;11664;49.774;8.650;2023-03-23T04:26:13;5.47;;;5.18;;
22995;SDS011;11664;49.774;8.650;2023-03-23T04:28:54;8.00;;;7.60;;
22995;SDS011;11664;49.774;8.650;2023-03-23T04:31:21;7.22;;;6.72;;
22995;SDS011;11664;49.774;8.650;2023-03-23T04:33:49;8.10;;;7.65;;
22995;SDS011;11664;49.774;8.650;2023-03-23T04:36:25;8.77;;;8.25;;
22995;SDS011;11664;49.774;8.650;2023-03-23T04:38:51;5.75;;;5.45;;
22995;SDS011;11664;49.774;8.650;2023-03-23T04:41:22;7.97;;;7.57;;
22995;SDS011;11664;49.774;8.650;2023-03-23T04:43:49;8.77;;;8.35;;
22995;SDS011;11664;49.774;8.650;2023-03-23T04:46:20;9.35;;;8.85;;
22995;SDS011;11664;49.774;8.650;2023-03-23T04:48:49;8.10;;;7.68;;
22995;SDS011;11664;49.774;8.650;2023-03-23T04:51:21;7.88;;;7.38;;
22995;SDS011;11664;49.774;8.650;2023-03-23T04:53:49;10.52;;;9.88;;
22995;SDS011;11664;49.774;8.650;2023-03-23T04:56:21;7.22;;;6.55;;
22995;SDS011;11664;49.774;8.650;2023-03-23T04:58:49;6.93;;;6.53;;
22995;SDS011;11664;49.774;8.650;2023-03-23T05:01:15;6.78;;;6.32;;
22995;SDS011;11664;49.774;8.650;2023-03-23T05:03:48;9.27;;;8.43;;
22995;SDS011;11664;49.774;8.650;2023-03-23T05:06:19;8.85;;;8.38;;
22995;SDS011;11664;49.774;8.650;2023-03-23T05:09:03;7.90;;;7.45;;
22995;SDS011;11664;49.774;8.650;2023-03-23T05:11:29;8.60;;;8.10;;
22995;SDS011;11664;49.774;8.650;2023-03-23T05:13:55;8.23;;;7.78;;
22995;SDS011;11664;49.774;8.650;2023-03-23T05:16:20;8.38;;;7.88;;
22995;SDS011;11664;49.774;8.650;2023-03-23T05:18:49;6.50;;;6.07;;
22995;SDS011;11664;49.774;8.650;2023-03-23T05:21:14;6.15;;;5.75;;
22995;SDS011;11664;49.774;8.650;2023-03-23T05:23:40;6.30;;;5.93;;
22995;SDS011;11664;49.774;8.650;2023-03-23T05:26:18;6.82;;;6.43;;
22995;SDS011;11664;49.774;8.650;2023-03-23T05:28:46;10.35;;;9.77;;
22995;SDS011;11664;49.774;8.650;2023-03-23T05:31:18;12.45;;;11.25;;
22995;SDS011;11664;49.774;8.650;2023-03-23T05:33:45;11.00;;;10.30;;
22995;SDS011;11664;49.774;8.650;2023-03-23T05:36:10;7.78;;;7.32;;
22995;SDS011;11664;49.774;8.650;2023-03-23T05:38:38;9.13;;;8.63;;
22995;SDS011;11664;49.774;8.650;2023-03-23T05:41:25;13.38;;;12.65;;
22995;SDS011;11664;49.774;8.650;2023-03-23T05:44:03;10.43;;;9.75;;
22995;SDS011;11664;49.774;8.650;2023-03-23T05:46:29;11.43;;;10.65;;
22995;SDS011;11664;49.774;8.650;2023-03-23T05:48:54;16.00;;;15.13;;
22995;SDS011;11664;49.774;8.650;2023-03-23T05:51:20;11.15;;;10.57;;
22995;SDS011;11664;49.774;8.650;2023-03-23T05:53:45;12.82;;;12.20;;
22995;SDS011;11664;49.774;8.650;2023-03-23T05:56:18;14.25;;;13.35;;
22995;SDS011;11664;49.774;8.650;2023-03-23T05:58:54;9.63;;;9.13;;
22995;SDS011;11664;49.774;8.650;2023-03-23T06:01:23;10.07;;;9.50;;
22995;SDS011;11664;49.774;8.650;2023-03-23T06:03:58;6.32;;;6.00;;
22995;SDS011;11664;49.774;8.650;2023-03-23T06:06:30;9.77;;;9.25;;
22995;SDS011;11664;49.774;8.650;2023-03-23T06:08:57;9.18;;;8.50;;
22995;SDS011;11664;49.774;8.650;2023-03-23T06:11:23;8.60;;;8.10;;
22995;SDS011;11664;49.774;8.650;2023-03-23T06:13:56;7.05;;;6.60;;
22995;SDS011;11664;49.774;8.650;2023-03-23T06:16:22;5.13;;;4.82;;
22995;SDS011;11664;49.774;8.650;2023-03-23T06:18:52;4.50;;;4.10;;
22995;SDS011;11664;49.774;8.650;2023-03-23T06:21:21;4.00;;;3.70;;
22995;SDS011;11664;49.774;8.650;2023-03-23T06:23:50;3.95;;;3.75;;
22995;SDS011;11664;49.774;8.650;2023-03-23T06:26:23;5.10;;;4.80;;
22995;SDS011;11664;49.774;8.650;2023-03-23T06:28:57;3.95;;;3.75;;
22995;SDS011;11664;49.774;8.650;2023-03-23T06:31:26;4.47;;;4.22;;
22995;SDS011;11664;49.774;8.650;2023-03-23T06:33:58;3.72;;;3.42;;
22995;SDS011;11664;49.774;8.650;2023-03-23T06:36:24;4.22;;;3.92;;
22995;SDS011;11664;49.774;8.650;2023-03-23T06:39:02;3.40;;;3.10;;
22995;SDS011;11664;49.774;8.650;2023-03-23T06:41:34;3.90;;;3.60;;
22995;SDS011;11664;49.774;8.650;2023-03-23T06:44:03;3.53;;;3.22;;
22995;SDS011;11664;49.774;8.650;2023-03-23T06:46:29;3.25;;;3.05;;
22995;SDS011;11664;49.774;8.650;2023-03-23T06:48:57;4.53;;;4.22;;
22995;SDS011;11664;49.774;8.650;2023-03-23T06:51:26;4.75;;;4.47;;
22995;SDS011;11664;49.774;8.650;2023-03-23T06:53:51;6.57;;;6.18;;
22995;SDS011;11664;49.774;8.650;2023-03-23T06:56:20;12.48;;;11.82;;
22995;SDS011;11664;49.774;8.650;2023-03-23T06:58:52;7.47;;;6.88;;
22995;SDS011;11664;49.774;8.650;2023-03-23T07:01:18;5.95;;;5.65;;
22995;SDS011;11664;49.774;8.650;2023-03-23T07:03:53;5.78;;;4.95;;
22995;SDS011;11664;49.774;8.650;2023-03-23T07:06:20;8.30;;;7.70;;
22995;SDS011;11664;49.774;8.650;2023-03-23T07:08:53;6.03;;;5.72;;
22995;SDS011;11664;49.774;8.650;2023-03-23T07:11:21;6.43;;;5.95;;
22995;SDS011;11664;49.774;8.650;2023-03-23T07:13:50;6.50;;;6.13;;
22995;SDS011;11664;49.774;8.650;2023-03-23T07:16:22;5.13;;;4.72;;
22995;SDS011;11664;49.774;8.650;2023-03-23T07:18:50;5.72;;;5.43;;
22995;SDS011;11664;49.774;8.650;2023-03-23T07:21:16;7.78;;;7.30;;
22995;SDS011;11664;49.774;8.650;2023-03-23T07:23:45;5.47;;;5.18;;
22995;SDS011;11664;49.774;8.650;2023-03-23T07:26:11;6.47;;;5.28;;
22995;SDS011;11664;49.774;8.650;2023-03-23T07:28:53;7.10;;;6.53;;
22995;SDS011;11664;49.774;8.650;2023-03-23T07:31:31;6.65;;;6.25;;
22995;SDS011;11664;49.774;8.650;2023-03-23T07:33:57;8.85;;;8.35;;
22995;SDS011;11664;49.774;8.650;2023-03-23T07:36:31;8.52;;;7.93;;
22995;SDS011;11664;49.774;8.650;2023-03-23T07:38:58;9.55;;;8.98;;
22995;SDS011;11664;49.774;8.650;2023-03-23T07:41:23;10.65;;;10.05;;
22995;SDS011;11664;49.774;8.650;2023-03-23T07:43:52;6.72;;;6.32;;
22995;SDS011;11664;49.774;8.650;2023-03-23T07:46:26;8.18;;;7.57;;
22995;SDS011;11664;49.774;8.650;2023-03-23T07:48:59;5.95;;;5.57;;
22995;SDS011;11664;49.774;8.650;2023-03-23T07:51:39;3.95;;;3.75;;
22995;SDS011;11664;49.774;8.650;2023-03-23T07:54:10;3.65;;;3.45;;
22995;SDS011;11664;49.774;8.650;2023-03-23T07:56:36;4.32;;;4.03;;
22995;SDS011;11664;49.774;8.650;2023-03-23T07:59:04;4.30;;;3.95;;
22995;SDS011;11664;49.774;8.650;2023-03-23T08:01:37;4.45;;;4.15;;
22995;SDS011;11664;49.774;8.650;2023-03-23T08:04:07;4.40;;;4.10;;
22995;SDS011;11664;49.774;8.650;2023-03-23T08:06:34;3.90;;;3.60;;
22995;SDS011;11664;49.774;8.650;2023-03-23T08:09:03;4.28;;;3.97;;
22995;SDS011;11664;49.774;8.650;2023-03-23T08:11:36;4.20;;;3.90;;
22995;SDS011;11664;49.774;8.650;2023-03-23T08:14:06;4.15;;;3.95;;
22995;SDS011;11664;49.774;8.650;2023-03-23T08:16:43;4.40;;;4.20;;
22995;SDS011;11664;49.774;8.650;2023-03-23T08:19:09;4.13;;;3.92;;
22995;SDS011;11664;49.774;8.650;2023-03-23T08:21:34;3.75;;;3.55;;
22995;SDS011;11664;49.774;8.650;2023-03-23T08:24:00;4.22;;;4.03;;
22995;SDS011;11664;49.774;8.650;2023-03-23T08:26:32;4.22;;;3.83;;
22995;SDS011;11664;49.774;8.650;2023-03-23T08:29:12;3.70;;;3.50;;
22995;SDS011;11664;49.774;8.650;2023-03-23T08:31:45;4.22;;;4.03;;
22995;SDS011;11664;49.774;8.650;2023-03-23T08:34:12;4.40;;;4.10;;
22995;SDS011;11664;49.774;8.650;2023-03-23T08:36:41;5.43;;;5.13;;
22995;SDS011;11664;49.774;8.650;2023-03-23T08:39:09;4.10;;;3.90;;
22995;SDS011;11664;49.774;8.650;2023-03-23T08:41:34;5.18;;;4.88;;
22995;SDS011;11664;49.774;8.650;2023-03-23T08:44:06;5.53;;;5.22;;
22995;SDS011;11664;49.774;8.650;2023-03-23T08:46:33;4.47;;;4.28;;
22995;SDS011;11664;49.774;8.650;2023-03-23T08:49:02;4.00;;;3.80;;
22995;SDS011;11664;49.774;8.650;2023-03-23T08:51:36;3.80;;;3.60;;
22995;SDS011;11664;49.774;8.650;2023-03-23T08:54:05;4.28;;;4.07;;
22995;SDS011;11664;49.774;8.650;2023-03-23T08:56:32;3.92;;;3.72;;
22995;SDS011;11664;49.774;8.650;2023-03-23T08:59:07;4.50;;;4.25;;
22995;SDS011;11664;49.774;8.650;2023-03-23T09:01:35;9.75;;;9.07;;
22995;SDS011;11664;49.774;8.650;2023-03-23T09:04:08;5.90;;;5.57;;
22995;SDS011;11664;49.774;8.650;2023-03-23T09:06:40;5.00;;;4.72;;
22995;SDS011;11664;49.774;8.650;2023-03-23T09:09:06;10.20;;;9.68;;
22995;SDS011;11664;49.774;8.650;2023-03-23T09:11:38;7.35;;;6.90;;
22995;SDS011;11664;49.774;8.650;2023-03-23T09:14:07;12.20;;;11.60;;
22995;SDS011;11664;49.774;8.650;2023-03-23T09:16:33;6.47;;;6.18;;
22995;SDS011;11664;49.774;8.650;2023-03-23T09:19:05;8.93;;;8.48;;
22995;SDS011;11664;49.774;8.650;2023-03-23T09:24:27;4.95;;;4.65;;
22995;SDS011;11664;49.774;8.650;2023-03-23T09:26:53;4.70;;;4.50;;
22995;SDS011;11664;49.774;8.650;2023-03-23T09:29:25;5.25;;;4.95;;
22995;SDS011;11664;49.774;8.650;2023-03-23T09:31:53;5.93;;;5.63;;
22995;SDS011;11664;49.774;8.650;2023-03-23T09:34:19;5.18;;;4.88;;
22995;SDS011;11664;49.774;8.650;2023-03-23T09:36:49;5.15;;;4.82;;
22995;SDS011;11664;49.774;8.650;2023-03-23T09:39:23;3.38;;;3.17;;
22995;SDS011;11664;49.774;8.650;2023-03-23T09:47:25;5.55;;;5.25;;
22995;SDS011;11664;49.774;8.650;2023-03-23T09:58:30;3.92;;;3.72;;
22995;SDS011;11664;49.774;8.650;2023-03-23T10:01:20;4.20;;;4.00;;
22995;SDS011;11664;49.774;8.650;2023-03-23T10:04:09;9.75;;;9.15;;
22995;SDS011;11664;49.774;8.650;2023-03-23T10:07:13;9.90;;;9.30;;
22995;SDS011;11664;49.774;8.650;2023-03-23T10:09:56;10.50;;;9.80;;
22995;SDS011;11664;49.774;8.650;2023-03-23T10:12:31;14.47;;;13.70;;
22995;SDS011;11664;49.774;8.650;2023-03-23T10:25:49;8.00;;;7.60;;
22995;SDS011;11664;49.774;8.650;2023-03-23T10:28:21;5.50;;;5.20;;
22995;SDS011;11664;49.774;8.650;2023-03-23T10:30:59;7.53;;;7.13;;
22995;SDS011;11664;49.774;8.650;2023-03-23T10:36:21;14.85;;;13.90;;
22995;SDS011;11664;49.774;8.650;2023-03-23T10:41:40;10.50;;;9.82;;
22995;SDS011;11664;49.774;8.650;2023-03-23T10:46:58;5.63;;;5.32;;
22995;SDS011;11664;49.774;8.650;2023-03-23T10:49:27;4.05;;;3.85;;
22995;SDS011;11664;49.774;8.650;2023-03-23T10:55:14;5.07;;;4.88;;
22995;SDS011;11664;49.774;8.650;2023-03-23T10:57:58;3.83;;;3.63;;
22995;SDS011;11664;49.774;8.650;2023-03-23T11:00:26;3.60;;;3.40;;
22995;SDS011;11664;49.774;8.650;2023-03-23T11:08:16;4.85;;;4.55;;
22995;SDS011;11664;49.774;8.650;2023-03-23T11:10:56;4.57;;;4.28;;
22995;SDS011;11664;49.774;8.650;2023-03-23T11:13:38;4.15;;;3.85;;
22995;SDS011;11664;49.774;8.650;2023-03-23T11:16:08;5.05;;;4.75;;
22995;SDS011;11664;49.774;8.650;2023-03-23T11:18:40;5.50;;;5.20;;
22995;SDS011;11664;49.774;8.650;2023-03-23T11:21:13;5.95;;;5.55;;
22995;SDS011;11664;49.774;8.650;2023-03-23T11:23:46;6.53;;;6.13;;
22995;SDS011;11664;49.774;8.650;2023-03-23T11:31:45;4.45;;;4.25;;
22995;SDS011;11664;49.774;8.650;2023-03-23T11:57:08;6.60;;;5.05;;
22995;SDS011;11664;49.774;8.650;2023-03-23T11:59:36;5.88;;;5.47;;
22995;SDS011;11664;49.774;8.650;2023-03-23T12:08:00;5.85;;;4.30;;
22995;SDS011;11664;49.774;8.650;2023-03-23T12:10:47;4.30;;;4.10;;
22995;SDS011;11664;49.774;8.650;2023-03-23T12:13:42;4.05;;;3.85;;
22995;SDS011;11664;49.774;8.650;2023-03-23T12:48:33;5.97;;;5.50;;
22995;SDS011;11664;49.774;8.650;2023-03-23T12:59:44;8.45;;;7.85;;
22995;SDS011;11664;49.774;8.650;2023-03-23T13:02:56;5.95;;;5.68;;
22995;SDS011;11664;49.774;8.650;2023-03-23T13:05:57;6.25;;;5.93;;
22995;SDS011;11664;49.774;8.650;2023-03-23T13:23:34;6.13;;;5.82;;
22995;SDS011;11664;49.774;8.650;2023-03-23T13:26:07;11.90;;;11.30;;
22995;SDS011;11664;49.774;8.650;2023-03-23T13:28:50;16.98;;;16.10;;
22995;SDS011;11664;49.774;8.650;2023-03-23T13:31:32;10.68;;;10.18;;
22995;SDS011;11664;49.774;8.650;2023-03-23T13:34:04;12.43;;;11.68;;
22995;SDS011;11664;49.774;8.650;2023-03-23T13:36:59;5.72;;;5.47;;
22995;SDS011;11664;49.774;8.650;2023-03-23T13:39:57;5.50;;;5.18;;
22995;SDS011;11664;49.774;8.650;2023-03-23T13:42:54;5.28;;;5.07;;
22995;SDS011;11664;49.774;8.650;2023-03-23T13:53:48;8.00;;;7.60;;
22995;SDS011;11664;49.774;8.650;2023-03-23T13:56:36;7.07;;;6.78;;
22995;SDS011;11664;49.774;8.650;2023-03-23T14:02:21;4.20;;;4.00;;
22995;SDS011;11664;49.774;8.650;2023-03-23T14:04:52;4.45;;;4.25;;
22995;SDS011;11664;49.774;8.650;2023-03-23T14:07:22;5.30;;;5.00;;
22995;SDS011;11664;49.774;8.650;2023-03-23T14:09:52;6.68;;;6.32;;
22995;SDS011;11664;49.774;8.650;2023-03-23T14:12:29;7.40;;;6.97;;
22995;SDS011;11664;49.774;8.650;2023-03-23T14:15:11;6.47;;;6.18;;
22995;SDS011;11664;49.774;8.650;2023-03-23T14:17:43;6.13;;;5.82;;
22995;SDS011;11664;49.774;8.650;2023-03-23T14:20:20;7.65;;;7.25;;
22995;SDS011;11664;49.774;8.650;2023-03-23T14:22:59;4.82;;;4.60;;
22995;SDS011;11664;49.774;8.650;2023-03-23T14:25:26;5.20;;;4.80;;
22995;SDS011;11664;49.774;8.650;2023-03-23T14:28:23;3.80;;;3.45;;
22995;SDS011;11664;49.774;8.650;2023-03-23T14:30:52;3.38;;;3.17;;
22995;SDS011;11664;49.774;8.650;2023-03-23T14:33:22;3.63;;;3.42;;
22995;SDS011;11664;49.774;8.650;2023-03-23T14:35:51;4.30;;;4.10;;
22995;SDS011;11664;49.774;8.650;2023-03-23T14:38:21;7.45;;;7.07;;
22995;SDS011;11664;49.774;8.650;2023-03-23T14:40:51;6.88;;;6.50;;
22995;SDS011;11664;49.774;8.650;2023-03-23T14:43:20;5.43;;;5.13;;
22995;SDS011;11664;49.774;8.650;2023-03-23T14:45:51;4.43;;;4.20;;
22995;SDS011;11664;49.774;8.650;2023-03-23T14:48:20;4.45;;;4.25;;
22995;SDS011;11664;49.774;8.650;2023-03-23T14:51:04;4.47;;;4.28;;
22995;SDS011;11664;49.774;8.650;2023-03-23T14:53:38;4.78;;;4.47;;
22995;SDS011;11664;49.774;8.650;2023-03-23T14:56:12;4.28;;;4.07;;
22995;SDS011;11664;49.774;8.650;2023-03-23T14:58:43;4.90;;;4.70;;
22995;SDS011;11664;49.774;8.650;2023-03-23T15:01:10;4.50;;;4.28;;
22995;SDS011;11664;49.774;8.650;2023-03-23T15:03:57;5.55;;;4.72;;
22995;SDS011;11664;49.774;8.650;2023-03-23T15:06:36;5.15;;;4.85;;
22995;SDS011;11664;49.774;8.650;2023-03-23T15:09:09;5.45;;;5.05;;
22995;SDS011;11664;49.774;8.650;2023-03-23T15:14:43;5.18;;;4.88;;
22995;SDS011;11664;49.774;8.650;2023-03-23T15:17:19;4.95;;;4.65;;
22995;SDS011;11664;49.774;8.650;2023-03-23T15:23:07;5.43;;;5.13;;
22995;SDS011;11664;49.774;8.650;2023-03-23T15:25:51;5.55;;;5.28;;
22995;SDS011;11664;49.774;8.650;2023-03-23T15:28:20;5.90;;;5.40;;
22995;SDS011;11664;49.774;8.650;2023-03-23T15:30:53;5.43;;;5.13;;
22995;SDS011;11664;49.774;8.650;2023-03-23T15:33:21;5.38;;;5.10;;
22995;SDS011;11664;49.774;8.650;2023-03-23T15:35:51;6.72;;;6.30;;
22995;SDS011;11664;49.774;8.650;2023-03-23T15:38:31;5.30;;;5.07;;
22995;SDS011;11664;49.774;8.650;2023-03-23T15:40:59;6.03;;;5.53;;
22995;SDS011;11664;49.774;8.650;2023-03-23T15:46:23;4.53;;;4.32;;
22995;SDS011;11664;49.774;8.650;2023-03-23T15:51:28;5.05;;;4.75;;
22995;SDS011;11664;49.774;8.650;2023-03-23T15:53:56;4.22;;;4.03;;
22995;SDS011;11664;49.774;8.650;2023-03-23T15:56:30;3.90;;;3.70;;
22995;SDS011;11664;49.774;8.650;2023-03-23T15:59:03;4.03;;;3.80;;
22995;SDS011;11664;49.774;8.650;2023-03-23T16:01:36;4.00;;;3.70;;
22995;SDS011;11664;49.774;8.650;2023-03-23T16:06:57;4.68;;;4.43;;
22995;SDS011;11664;49.774;8.650;2023-03-23T16:09:37;4.47;;;4.28;;
22995;SDS011;11664;49.774;8.650;2023-03-23T16:12:15;5.13;;;4.82;;
22995;SDS011;11664;49.774;8.650;2023-03-23T16:14:45;6.55;;;6.22;;
22995;SDS011;11664;49.774;8.650;2023-03-23T16:17:13;5.22;;;5.00;;
22995;SDS011;11664;49.774;8.650;2023-03-23T16:19:42;4.80;;;4.57;;
22995;SDS011;11664;49.774;8.650;2023-03-23T16:22:20;4.53;;;4.32;;
22995;SDS011;11664;49.774;8.650;2023-03-23T16:24:45;6.03;;;5.53;;
22995;SDS011;11664;49.774;8.650;2023-03-23T16:27:14;8.07;;;7.68;;
22995;SDS011;11664;49.774;8.650;2023-03-23T16:29:46;6.75;;;6.43;;
22995;SDS011;11664;49.774;8.650;2023-03-23T16:32:17;7.30;;;6.95;;
22995;SDS011;11664;49.774;8.650;2023-03-23T16:34:43;6.32;;;6.03;;
22995;SDS011;11664;49.774;8.650;2023-03-23T16:37:09;5.60;;;5.30;;
22995;SDS011;11664;49.774;8.650;2023-03-23T16:39:38;8.32;;;7.93;;
22995;SDS011;11664;49.774;8.650;2023-03-23T16:42:04;5.60;;;5.25;;
22995;SDS011;11664;49.774;8.650;2023-03-23T16:44:36;6.57;;;6.03;;
22995;SDS011;11664;49.774;8.650;2023-03-23T16:47:07;5.97;;;5.68;;
22995;SDS011;11664;49.774;8.650;2023-03-23T16:49:33;4.47;;;4.28;;
22995;SDS011;11664;49.774;8.650;2023-03-23T16:51:59;4.30;;;4.10;;
22995;SDS011;11664;49.774;8.650;2023-03-23T16:54:30;5.80;;;5.32;;
22995;SDS011;11664;49.774;8.650;2023-03-23T16:57:11;5.22;;;4.95;;
22995;SDS011;11664;49.774;8.650;2023-03-23T16:59:41;4.30;;;4.00;;
22995;SDS011;11664;49.774;8.650;2023-03-23T17:02:13;4.40;;;4.20;;
22995;SDS011;11664;49.774;8.650;2023-03-23T17:04:57;4.15;;;3.85;;
22995;SDS011;11664;49.774;8.650;2023-03-23T17:07:29;3.92;;;3.72;;
22995;SDS011;11664;49.774;8.650;2023-03-23T17:10:08;3.97;;;3.78;;
22995;SDS011;11664;49.774;8.650;2023-03-23T17:12:35;3.83;;;3.60;;
22995;SDS011;11664;49.774;8.650;2023-03-23T17:15:04;4.80;;;4.28;;
22995;SDS011;11664;49.774;8.650;2023-03-23T17:17:34;3.45;;;3.25;;
22995;SDS011;11664;49.774;8.650;2023-03-23T17:20:06;4.03;;;3.83;;
22995;SDS011;11664;49.774;8.650;2023-03-23T17:22:34;4.05;;;3.75;;
22995;SDS011;11664;49.774;8.650;2023-03-23T17:25:03;4.50;;;4.30;;
22995;SDS011;11664;49.774;8.650;2023-03-23T17:27:29;5.03;;;4.72;;
22995;SDS011;11664;49.774;8.650;2023-03-23T17:30:08;3.97;;;3.60;;
22995;SDS011;11664;49.774;8.650;2023-03-23T17:32:34;4.25;;;3.95;;
22995;SDS011;11664;49.774;8.650;2023-03-23T17:35:03;4.85;;;4.43;;
22995;SDS011;11664;49.774;8.650;2023-03-23T17:37:29;4.18;;;3.97;;
22995;SDS011;11664;49.774;8.650;2023-03-23T17:39:55;4.28;;;4.07;;
22995;SDS011;11664;49.774;8.650;2023-03-23T17:42:24;4.60;;;3.95;;
22995;SDS011;11664;49.774;8.650;2023-03-23T17:44:55;6.20;;;5.78;;
22995;SDS011;11664;49.774;8.650;2023-03-23T17:47:38;4.25;;;3.88;;
22995;SDS011;11664;49.774;8.650;2023-03-23T17:50:22;3.90;;;3.63;;
22995;SDS011;11664;49.774;8.650;2023-03-23T17:52:47;4.40;;;4.10;;
22995;SDS011;11664;49.774;8.650;2023-03-23T17:55:16;4.10;;;3.85;;
22995;SDS011;11664;49.774;8.650;2023-03-23T17:57:42;4.25;;;3.95;;
22995;SDS011;11664;49.774;8.650;2023-03-23T18:00:07;4.68;;;4.28;;
22995;SDS011;11664;49.774;8.650;2023-03-23T18:02:37;5.10;;;4.70;;
22995;SDS011;11664;49.774;8.650;2023-03-23T18:05:20;5.32;;;4.93;;
22995;SDS011;11664;49.774;8.650;2023-03-23T18:07:48;7.35;;;6.90;;
22995;SDS011;11664;49.774;8.650;2023-03-23T18:10:14;7.35;;;6.85;;
22995;SDS011;11664;49.774;8.650;2023-03-23T18:12:43;6.28;;;5.88;;
22995;SDS011;11664;49.774;8.650;2023-03-23T18:15:22;3.50;;;3.30;;
22995;SDS011;11664;49.774;8.650;2023-03-23T18:17:47;4.53;;;4.18;;
22995;SDS011;11664;49.774;8.650;2023-03-23T18:23:09;4.93;;;4.57;;
22995;SDS011;11664;49.774;8.650;2023-03-23T18:25:45;4.70;;;4.50;;
22995;SDS011;11664;49.774;8.650;2023-03-23T18:28:13;4.68;;;4.38;;
22995;SDS011;11664;49.774;8.650;2023-03-23T18:30:39;4.22;;;3.83;;
22995;SDS011;11664;49.774;8.650;2023-03-23T18:33:05;4.55;;;4.18;;